Holmes Mill, Kentucky
Current Conditions -  °F | °C
As of 11:15 PM on Thursday 27 Nov 2014 (Local Time) from K0VG Reporting Station
Overcast Overcast  
Wind Chill: 30°   Ceiling: 3600
Heat Index: 30°   Visibility: 10mi
Dew Point: 25°   Wind: 0mph
Humidity: 80%   Direction: NA
Pressure: 30.38"   Gusts: NA
Location:  36.87°N, 83.01°W
Report Text: K0VG 280415Z AUTO 00000KT 10SM SCT029 OVC036 M01/M04 A3038 RMK AO2
Loading
Personal Weather Stations






























Interactive Weather Map New forecast layout! Learn more

10-Day Weather Forecast

Advertisements
Track Severe Weather on mobile